sensor_id;sensor_type;location;lat;lon;timestamp;P1;durP1;ratioP1;P2;durP2;ratioP2
20065;SDS011;10193;48.884;9.182;2024-02-15T00:00:14;1.10;;;0.80;;
20065;SDS011;10193;48.884;9.182;2024-02-15T00:02:43;1.33;;;0.98;;
20065;SDS011;10193;48.884;9.182;2024-02-15T00:05:10;1.38;;;1.08;;
20065;SDS011;10193;48.884;9.182;2024-02-15T00:07:37;1.00;;;0.90;;
20065;SDS011;10193;48.884;9.182;2024-02-15T00:10:04;3.28;;;1.02;;
20065;SDS011;10193;48.884;9.182;2024-02-15T00:12:33;0.82;;;0.82;;
20065;SDS011;10193;48.884;9.182;2024-02-15T00:15:00;0.75;;;0.75;;
20065;SDS011;10193;48.884;9.182;2024-02-15T00:17:27;1.23;;;0.95;;
20065;SDS011;10193;48.884;9.182;2024-02-15T00:19:56;1.10;;;1.10;;
20065;SDS011;10193;48.884;9.182;2024-02-15T00:22:22;0.70;;;0.70;;
20065;SDS011;10193;48.884;9.182;2024-02-15T00:24:49;1.65;;;1.40;;
20065;SDS011;10193;48.884;9.182;2024-02-15T00:27:16;1.30;;;1.20;;
20065;SDS011;10193;48.884;9.182;2024-02-15T00:29:42;1.20;;;1.10;;
20065;SDS011;10193;48.884;9.182;2024-02-15T00:32:09;1.00;;;1.00;;
20065;SDS011;10193;48.884;9.182;2024-02-15T00:34:36;0.80;;;0.80;;
20065;SDS011;10193;48.884;9.182;2024-02-15T00:37:04;1.20;;;0.93;;
20065;SDS011;10193;48.884;9.182;2024-02-15T00:39:31;1.00;;;1.00;;
20065;SDS011;10193;48.884;9.182;2024-02-15T00:41:58;1.00;;;0.90;;
20065;SDS011;10193;48.884;9.182;2024-02-15T00:44:26;1.00;;;0.90;;
20065;SDS011;10193;48.884;9.182;2024-02-15T00:46:52;1.40;;;1.10;;
20065;SDS011;10193;48.884;9.182;2024-02-15T00:49:19;1.48;;;1.05;;
20065;SDS011;10193;48.884;9.182;2024-02-15T00:51:46;0.90;;;0.90;;
20065;SDS011;10193;48.884;9.182;2024-02-15T00:54:15;0.82;;;0.70;;
20065;SDS011;10193;48.884;9.182;2024-02-15T00:56:42;1.25;;;0.80;;
20065;SDS011;10193;48.884;9.182;2024-02-15T00:59:08;0.98;;;0.90;;
20065;SDS011;10193;48.884;9.182;2024-02-15T01:01:35;1.10;;;1.00;;
20065;SDS011;10193;48.884;9.182;2024-02-15T01:04:03;1.13;;;0.88;;
20065;SDS011;10193;48.884;9.182;2024-02-15T01:06:29;1.10;;;1.10;;
20065;SDS011;10193;48.884;9.182;2024-02-15T01:08:56;1.23;;;1.13;;
20065;SDS011;10193;48.884;9.182;2024-02-15T01:11:24;1.15;;;1.02;;
20065;SDS011;10193;48.884;9.182;2024-02-15T01:13:53;1.20;;;0.90;;
20065;SDS011;10193;48.884;9.182;2024-02-15T01:16:19;0.90;;;0.90;;
20065;SDS011;10193;48.884;9.182;2024-02-15T01:18:47;1.55;;;0.80;;
20065;SDS011;10193;48.884;9.182;2024-02-15T01:21:14;0.90;;;0.77;;
20065;SDS011;10193;48.884;9.182;2024-02-15T01:23:40;0.80;;;0.70;;
20065;SDS011;10193;48.884;9.182;2024-02-15T01:26:09;1.10;;;1.00;;
20065;SDS011;10193;48.884;9.182;2024-02-15T01:28:38;0.70;;;0.70;;
20065;SDS011;10193;48.884;9.182;2024-02-15T01:31:07;0.80;;;0.80;;
20065;SDS011;10193;48.884;9.182;2024-02-15T01:33:35;1.02;;;0.82;;
20065;SDS011;10193;48.884;9.182;2024-02-15T01:36:02;1.55;;;0.90;;
20065;SDS011;10193;48.884;9.182;2024-02-15T01:38:29;0.90;;;0.85;;
20065;SDS011;10193;48.884;9.182;2024-02-15T01:40:56;0.70;;;0.70;;
20065;SDS011;10193;48.884;9.182;2024-02-15T01:43:23;0.75;;;0.75;;
20065;SDS011;10193;48.884;9.182;2024-02-15T01:45:51;2.60;;;0.93;;
20065;SDS011;10193;48.884;9.182;2024-02-15T01:48:18;1.08;;;0.80;;
20065;SDS011;10193;48.884;9.182;2024-02-15T01:50:45;2.80;;;1.02;;
20065;SDS011;10193;48.884;9.182;2024-02-15T01:53:13;1.48;;;0.90;;
20065;SDS011;10193;48.884;9.182;2024-02-15T01:55:40;0.93;;;0.68;;
20065;SDS011;10193;48.884;9.182;2024-02-15T01:58:07;1.13;;;0.70;;
20065;SDS011;10193;48.884;9.182;2024-02-15T02:00:34;1.80;;;0.93;;
20065;SDS011;10193;48.884;9.182;2024-02-15T02:03:03;0.80;;;0.80;;
20065;SDS011;10193;48.884;9.182;2024-02-15T02:05:31;0.95;;;0.93;;
20065;SDS011;10193;48.884;9.182;2024-02-15T02:07:58;0.77;;;0.77;;
20065;SDS011;10193;48.884;9.182;2024-02-15T02:10:29;0.80;;;0.70;;
20065;SDS011;10193;48.884;9.182;2024-02-15T02:12:57;1.10;;;1.00;;
20065;SDS011;10193;48.884;9.182;2024-02-15T02:15:25;0.65;;;0.65;;
20065;SDS011;10193;48.884;9.182;2024-02-15T02:17:53;2.17;;;1.10;;
20065;SDS011;10193;48.884;9.182;2024-02-15T02:20:21;2.33;;;1.17;;
20065;SDS011;10193;48.884;9.182;2024-02-15T02:22:48;0.75;;;0.63;;
20065;SDS011;10193;48.884;9.182;2024-02-15T02:25:21;1.05;;;0.95;;
20065;SDS011;10193;48.884;9.182;2024-02-15T02:27:51;1.10;;;1.00;;
20065;SDS011;10193;48.884;9.182;2024-02-15T02:30:18;0.65;;;0.65;;
20065;SDS011;10193;48.884;9.182;2024-02-15T02:32:47;0.98;;;0.98;;
20065;SDS011;10193;48.884;9.182;2024-02-15T02:35:14;1.55;;;0.88;;
20065;SDS011;10193;48.884;9.182;2024-02-15T02:37:42;1.30;;;0.90;;
20065;SDS011;10193;48.884;9.182;2024-02-15T02:40:09;1.13;;;0.80;;
20065;SDS011;10193;48.884;9.182;2024-02-15T02:42:47;1.40;;;0.90;;
20065;SDS011;10193;48.884;9.182;2024-02-15T02:45:15;1.38;;;0.82;;
20065;SDS011;10193;48.884;9.182;2024-02-15T02:47:42;0.90;;;0.80;;
20065;SDS011;10193;48.884;9.182;2024-02-15T02:50:08;1.92;;;0.80;;
20065;SDS011;10193;48.884;9.182;2024-02-15T02:52:35;1.60;;;0.95;;
20065;SDS011;10193;48.884;9.182;2024-02-15T02:55:04;1.10;;;1.00;;
20065;SDS011;10193;48.884;9.182;2024-02-15T02:57:33;1.65;;;0.95;;
20065;SDS011;10193;48.884;9.182;2024-02-15T03:00:01;0.77;;;0.77;;
20065;SDS011;10193;48.884;9.182;2024-02-15T03:02:33;0.80;;;0.80;;
20065;SDS011;10193;48.884;9.182;2024-02-15T03:05:00;1.10;;;0.90;;
20065;SDS011;10193;48.884;9.182;2024-02-15T03:07:28;1.05;;;0.90;;
20065;SDS011;10193;48.884;9.182;2024-02-15T03:09:54;1.05;;;0.80;;
20065;SDS011;10193;48.884;9.182;2024-02-15T03:12:21;0.95;;;0.85;;
20065;SDS011;10193;48.884;9.182;2024-02-15T03:14:48;0.77;;;0.77;;
20065;SDS011;10193;48.884;9.182;2024-02-15T03:17:16;1.08;;;0.90;;
20065;SDS011;10193;48.884;9.182;2024-02-15T03:19:42;0.85;;;0.85;;
20065;SDS011;10193;48.884;9.182;2024-02-15T03:22:09;1.05;;;0.90;;
20065;SDS011;10193;48.884;9.182;2024-02-15T03:24:38;0.85;;;0.77;;
20065;SDS011;10193;48.884;9.182;2024-02-15T03:27:05;1.02;;;0.80;;
20065;SDS011;10193;48.884;9.182;2024-02-15T03:29:32;2.30;;;1.02;;
20065;SDS011;10193;48.884;9.182;2024-02-15T03:32:00;1.70;;;0.93;;
20065;SDS011;10193;48.884;9.182;2024-02-15T03:34:30;0.80;;;0.80;;
20065;SDS011;10193;48.884;9.182;2024-02-15T03:36:57;1.40;;;1.00;;
20065;SDS011;10193;48.884;9.182;2024-02-15T03:39:23;1.25;;;0.93;;
20065;SDS011;10193;48.884;9.182;2024-02-15T03:41:50;0.95;;;0.90;;
20065;SDS011;10193;48.884;9.182;2024-02-15T03:44:18;1.73;;;1.05;;
20065;SDS011;10193;48.884;9.182;2024-02-15T03:46:45;1.13;;;1.02;;
20065;SDS011;10193;48.884;9.182;2024-02-15T03:49:15;1.70;;;1.10;;
20065;SDS011;10193;48.884;9.182;2024-02-15T03:51:43;1.10;;;1.00;;
20065;SDS011;10193;48.884;9.182;2024-02-15T03:54:10;1.73;;;1.00;;
20065;SDS011;10193;48.884;9.182;2024-02-15T03:56:40;1.77;;;1.00;;
20065;SDS011;10193;48.884;9.182;2024-02-15T03:59:12;1.25;;;1.10;;
20065;SDS011;10193;48.884;9.182;2024-02-15T04:01:39;1.10;;;1.00;;
20065;SDS011;10193;48.884;9.182;2024-02-15T04:04:06;1.55;;;1.02;;
20065;SDS011;10193;48.884;9.182;2024-02-15T04:06:32;0.90;;;0.90;;
20065;SDS011;10193;48.884;9.182;2024-02-15T04:09:00;1.77;;;1.00;;
20065;SDS011;10193;48.884;9.182;2024-02-15T04:11:27;1.25;;;0.90;;
20065;SDS011;10193;48.884;9.182;2024-02-15T04:13:54;1.00;;;1.00;;
20065;SDS011;10193;48.884;9.182;2024-02-15T04:16:22;0.77;;;0.77;;
20065;SDS011;10193;48.884;9.182;2024-02-15T04:18:50;1.00;;;0.93;;
20065;SDS011;10193;48.884;9.182;2024-02-15T04:21:17;1.20;;;1.05;;
20065;SDS011;10193;48.884;9.182;2024-02-15T04:23:44;1.20;;;1.10;;
20065;SDS011;10193;48.884;9.182;2024-02-15T04:26:12;1.60;;;0.98;;
20065;SDS011;10193;48.884;9.182;2024-02-15T04:28:39;0.90;;;0.90;;
20065;SDS011;10193;48.884;9.182;2024-02-15T04:31:07;1.13;;;1.02;;
20065;SDS011;10193;48.884;9.182;2024-02-15T04:33:34;1.20;;;1.10;;
20065;SDS011;10193;48.884;9.182;2024-02-15T04:36:01;1.00;;;1.00;;
20065;SDS011;10193;48.884;9.182;2024-02-15T04:38:31;1.50;;;0.93;;
20065;SDS011;10193;48.884;9.182;2024-02-15T04:41:00;2.03;;;1.20;;
20065;SDS011;10193;48.884;9.182;2024-02-15T04:43:30;1.15;;;1.00;;
20065;SDS011;10193;48.884;9.182;2024-02-15T04:45:57;2.72;;;1.00;;
20065;SDS011;10193;48.884;9.182;2024-02-15T04:48:25;1.40;;;1.00;;
20065;SDS011;10193;48.884;9.182;2024-02-15T04:50:52;1.20;;;0.93;;
20065;SDS011;10193;48.884;9.182;2024-02-15T04:53:19;1.10;;;1.00;;
20065;SDS011;10193;48.884;9.182;2024-02-15T04:55:46;1.00;;;0.90;;
20065;SDS011;10193;48.884;9.182;2024-02-15T04:58:13;1.30;;;1.10;;
20065;SDS011;10193;48.884;9.182;2024-02-15T05:00:41;1.10;;;1.00;;
20065;SDS011;10193;48.884;9.182;2024-02-15T05:03:08;1.27;;;0.93;;
20065;SDS011;10193;48.884;9.182;2024-02-15T05:05:35;2.80;;;1.10;;
20065;SDS011;10193;48.884;9.182;2024-02-15T05:08:04;1.30;;;1.02;;
20065;SDS011;10193;48.884;9.182;2024-02-15T05:10:31;1.10;;;1.10;;
20065;SDS011;10193;48.884;9.182;2024-02-15T05:12:57;0.85;;;0.85;;
20065;SDS011;10193;48.884;9.182;2024-02-15T05:15:26;1.40;;;1.13;;
20065;SDS011;10193;48.884;9.182;2024-02-15T05:17:54;1.05;;;0.95;;
20065;SDS011;10193;48.884;9.182;2024-02-15T05:20:20;1.98;;;1.30;;
20065;SDS011;10193;48.884;9.182;2024-02-15T05:22:47;1.52;;;1.15;;
20065;SDS011;10193;48.884;9.182;2024-02-15T05:25:14;1.13;;;0.80;;
20065;SDS011;10193;48.884;9.182;2024-02-15T05:27:47;1.40;;;1.23;;
20065;SDS011;10193;48.884;9.182;2024-02-15T05:30:14;2.22;;;1.02;;
20065;SDS011;10193;48.884;9.182;2024-02-15T05:32:40;2.13;;;1.13;;
20065;SDS011;10193;48.884;9.182;2024-02-15T05:35:10;1.20;;;1.10;;
20065;SDS011;10193;48.884;9.182;2024-02-15T05:37:37;1.75;;;1.30;;
20065;SDS011;10193;48.884;9.182;2024-02-15T05:40:04;1.20;;;1.20;;
20065;SDS011;10193;48.884;9.182;2024-02-15T05:42:32;1.08;;;1.08;;
20065;SDS011;10193;48.884;9.182;2024-02-15T05:45:14;0.93;;;0.93;;
20065;SDS011;10193;48.884;9.182;2024-02-15T05:47:55;1.30;;;1.20;;
20065;SDS011;10193;48.884;9.182;2024-02-15T05:50:23;2.25;;;1.42;;
20065;SDS011;10193;48.884;9.182;2024-02-15T05:52:52;3.15;;;1.33;;
20065;SDS011;10193;48.884;9.182;2024-02-15T05:55:20;1.23;;;1.13;;
20065;SDS011;10193;48.884;9.182;2024-02-15T05:57:46;2.17;;;1.10;;
20065;SDS011;10193;48.884;9.182;2024-02-15T06:00:13;1.58;;;1.20;;
20065;SDS011;10193;48.884;9.182;2024-02-15T06:02:42;0.88;;;0.88;;
20065;SDS011;10193;48.884;9.182;2024-02-15T06:05:09;2.55;;;1.35;;
20065;SDS011;10193;48.884;9.182;2024-02-15T06:07:37;1.30;;;1.20;;
20065;SDS011;10193;48.884;9.182;2024-02-15T06:10:05;0.90;;;0.90;;
20065;SDS011;10193;48.884;9.182;2024-02-15T06:12:32;2.38;;;1.23;;
20065;SDS011;10193;48.884;9.182;2024-02-15T06:14:59;1.45;;;1.20;;
20065;SDS011;10193;48.884;9.182;2024-02-15T06:17:26;1.42;;;0.98;;
20065;SDS011;10193;48.884;9.182;2024-02-15T06:19:52;2.20;;;1.15;;
20065;SDS011;10193;48.884;9.182;2024-02-15T06:22:19;1.35;;;1.25;;
20065;SDS011;10193;48.884;9.182;2024-02-15T06:24:47;2.30;;;1.20;;
20065;SDS011;10193;48.884;9.182;2024-02-15T06:27:14;1.80;;;1.20;;
20065;SDS011;10193;48.884;9.182;2024-02-15T06:29:41;2.30;;;1.17;;
20065;SDS011;10193;48.884;9.182;2024-02-15T06:32:25;2.85;;;1.25;;
20065;SDS011;10193;48.884;9.182;2024-02-15T06:35:09;1.70;;;1.33;;
20065;SDS011;10193;48.884;9.182;2024-02-15T06:37:53;1.70;;;1.45;;
20065;SDS011;10193;48.884;9.182;2024-02-15T06:40:39;1.88;;;1.60;;
20065;SDS011;10193;48.884;9.182;2024-02-15T06:43:05;1.65;;;1.50;;
20065;SDS011;10193;48.884;9.182;2024-02-15T06:45:33;2.30;;;1.48;;
20065;SDS011;10193;48.884;9.182;2024-02-15T06:48:01;2.28;;;1.75;;
20065;SDS011;10193;48.884;9.182;2024-02-15T06:50:28;1.33;;;1.20;;
20065;SDS011;10193;48.884;9.182;2024-02-15T06:52:55;2.28;;;1.65;;
20065;SDS011;10193;48.884;9.182;2024-02-15T06:55:22;1.95;;;1.60;;
20065;SDS011;10193;48.884;9.182;2024-02-15T06:57:51;2.42;;;1.63;;
20065;SDS011;10193;48.884;9.182;2024-02-15T07:00:20;3.58;;;1.48;;
20065;SDS011;10193;48.884;9.182;2024-02-15T07:02:47;2.45;;;1.80;;
20065;SDS011;10193;48.884;9.182;2024-02-15T07:05:13;2.50;;;1.90;;
20065;SDS011;10193;48.884;9.182;2024-02-15T07:07:42;3.13;;;1.75;;
20065;SDS011;10193;48.884;9.182;2024-02-15T07:10:09;1.65;;;1.55;;
20065;SDS011;10193;48.884;9.182;2024-02-15T07:12:36;3.22;;;1.90;;
20065;SDS011;10193;48.884;9.182;2024-02-15T07:15:05;1.77;;;1.65;;
20065;SDS011;10193;48.884;9.182;2024-02-15T07:17:34;2.67;;;1.60;;
20065;SDS011;10193;48.884;9.182;2024-02-15T07:20:02;2.30;;;1.60;;
20065;SDS011;10193;48.884;9.182;2024-02-15T07:22:30;1.90;;;1.80;;
20065;SDS011;10193;48.884;9.182;2024-02-15T07:24:57;2.33;;;1.70;;
20065;SDS011;10193;48.884;9.182;2024-02-15T07:27:23;3.13;;;2.17;;
20065;SDS011;10193;48.884;9.182;2024-02-15T07:29:51;2.95;;;2.05;;
20065;SDS011;10193;48.884;9.182;2024-02-15T07:32:20;4.10;;;2.00;;
20065;SDS011;10193;48.884;9.182;2024-02-15T07:34:47;3.65;;;2.05;;
20065;SDS011;10193;48.884;9.182;2024-02-15T07:37:14;1.50;;;1.40;;
20065;SDS011;10193;48.884;9.182;2024-02-15T07:39:41;2.22;;;1.77;;
20065;SDS011;10193;48.884;9.182;2024-02-15T07:42:08;1.73;;;1.30;;
20065;SDS011;10193;48.884;9.182;2024-02-15T07:44:35;1.63;;;1.52;;
20065;SDS011;10193;48.884;9.182;2024-02-15T07:47:02;1.67;;;1.58;;
20065;SDS011;10193;48.884;9.182;2024-02-15T07:49:31;2.35;;;1.75;;
20065;SDS011;10193;48.884;9.182;2024-02-15T07:51:58;1.80;;;1.70;;
20065;SDS011;10193;48.884;9.182;2024-02-15T07:54:25;2.40;;;1.70;;
20065;SDS011;10193;48.884;9.182;2024-02-15T07:56:54;1.63;;;1.45;;
20065;SDS011;10193;48.884;9.182;2024-02-15T07:59:21;1.85;;;1.73;;
20065;SDS011;10193;48.884;9.182;2024-02-15T08:01:48;1.60;;;1.50;;
20065;SDS011;10193;48.884;9.182;2024-02-15T08:04:15;2.97;;;1.50;;
20065;SDS011;10193;48.884;9.182;2024-02-15T08:06:43;1.83;;;1.50;;
20065;SDS011;10193;48.884;9.182;2024-02-15T08:09:10;2.28;;;2.05;;
20065;SDS011;10193;48.884;9.182;2024-02-15T08:11:38;1.90;;;1.80;;
20065;SDS011;10193;48.884;9.182;2024-02-15T08:14:05;2.90;;;1.92;;
20065;SDS011;10193;48.884;9.182;2024-02-15T08:16:35;2.13;;;1.77;;
20065;SDS011;10193;48.884;9.182;2024-02-15T08:19:02;2.50;;;1.70;;
20065;SDS011;10193;48.884;9.182;2024-02-15T08:21:30;3.35;;;2.22;;
20065;SDS011;10193;48.884;9.182;2024-02-15T08:24:00;1.70;;;1.60;;
20065;SDS011;10193;48.884;9.182;2024-02-15T08:26:29;1.90;;;1.70;;
20065;SDS011;10193;48.884;9.182;2024-02-15T08:28:55;2.05;;;1.85;;
20065;SDS011;10193;48.884;9.182;2024-02-15T08:31:22;2.28;;;1.70;;
20065;SDS011;10193;48.884;9.182;2024-02-15T08:33:50;2.10;;;1.88;;
20065;SDS011;10193;48.884;9.182;2024-02-15T08:36:18;4.80;;;1.98;;
20065;SDS011;10193;48.884;9.182;2024-02-15T08:38:46;3.30;;;1.80;;
20065;SDS011;10193;48.884;9.182;2024-02-15T08:41:14;2.20;;;1.70;;
20065;SDS011;10193;48.884;9.182;2024-02-15T08:43:42;2.00;;;1.58;;
20065;SDS011;10193;48.884;9.182;2024-02-15T08:46:09;2.50;;;1.80;;
20065;SDS011;10193;48.884;9.182;2024-02-15T08:48:36;2.30;;;1.80;;
20065;SDS011;10193;48.884;9.182;2024-02-15T08:51:03;4.40;;;2.10;;
20065;SDS011;10193;48.884;9.182;2024-02-15T08:53:30;3.67;;;2.20;;
20065;SDS011;10193;48.884;9.182;2024-02-15T08:55:58;3.13;;;1.92;;
20065;SDS011;10193;48.884;9.182;2024-02-15T08:58:26;2.22;;;1.70;;
20065;SDS011;10193;48.884;9.182;2024-02-15T09:00:52;3.65;;;1.58;;
20065;SDS011;10193;48.884;9.182;2024-02-15T09:03:19;2.28;;;1.90;;
20065;SDS011;10193;48.884;9.182;2024-02-15T09:05:46;3.88;;;1.92;;
20065;SDS011;10193;48.884;9.182;2024-02-15T09:08:13;3.22;;;1.83;;
20065;SDS011;10193;48.884;9.182;2024-02-15T09:10:40;3.17;;;1.80;;
20065;SDS011;10193;48.884;9.182;2024-02-15T09:13:07;1.65;;;1.55;;
20065;SDS011;10193;48.884;9.182;2024-02-15T09:15:35;2.90;;;1.90;;
20065;SDS011;10193;48.884;9.182;2024-02-15T09:18:04;2.22;;;1.60;;
20065;SDS011;10193;48.884;9.182;2024-02-15T09:20:34;1.90;;;1.58;;
20065;SDS011;10193;48.884;9.182;2024-02-15T09:23:03;1.98;;;1.77;;
20065;SDS011;10193;48.884;9.182;2024-02-15T09:25:34;1.60;;;1.45;;
20065;SDS011;10193;48.884;9.182;2024-02-15T09:28:03;1.75;;;1.45;;
20065;SDS011;10193;48.884;9.182;2024-02-15T09:30:30;2.58;;;1.58;;
20065;SDS011;10193;48.884;9.182;2024-02-15T09:33:01;1.73;;;1.27;;
20065;SDS011;10193;48.884;9.182;2024-02-15T09:35:29;1.80;;;1.30;;
20065;SDS011;10193;48.884;9.182;2024-02-15T09:37:57;1.20;;;1.10;;
20065;SDS011;10193;48.884;9.182;2024-02-15T09:40:22;1.42;;;1.33;;
20065;SDS011;10193;48.884;9.182;2024-02-15T09:42:51;1.30;;;1.20;;
20065;SDS011;10193;48.884;9.182;2024-02-15T09:45:18;1.30;;;1.20;;
20065;SDS011;10193;48.884;9.182;2024-02-15T09:47:46;1.45;;;1.17;;
20065;SDS011;10193;48.884;9.182;2024-02-15T09:50:16;1.20;;;1.05;;
20065;SDS011;10193;48.884;9.182;2024-02-15T09:52:44;1.40;;;1.30;;
20065;SDS011;10193;48.884;9.182;2024-02-15T09:55:11;2.15;;;1.10;;
20065;SDS011;10193;48.884;9.182;2024-02-15T09:57:40;1.25;;;1.08;;
20065;SDS011;10193;48.884;9.182;2024-02-15T10:00:09;1.55;;;1.20;;
20065;SDS011;10193;48.884;9.182;2024-02-15T10:02:38;3.10;;;1.27;;
20065;SDS011;10193;48.884;9.182;2024-02-15T10:05:07;1.35;;;1.10;;
20065;SDS011;10193;48.884;9.182;2024-02-15T10:07:38;2.08;;;1.15;;
20065;SDS011;10193;48.884;9.182;2024-02-15T10:10:14;1.88;;;1.10;;
20065;SDS011;10193;48.884;9.182;2024-02-15T10:12:42;1.20;;;1.10;;
20065;SDS011;10193;48.884;9.182;2024-02-15T10:15:09;1.75;;;1.30;;
20065;SDS011;10193;48.884;9.182;2024-02-15T10:17:36;1.25;;;1.15;;
20065;SDS011;10193;48.884;9.182;2024-02-15T10:20:03;1.98;;;1.27;;
20065;SDS011;10193;48.884;9.182;2024-02-15T10:22:30;1.65;;;1.40;;
20065;SDS011;10193;48.884;9.182;2024-02-15T10:25:11;1.55;;;1.42;;
20065;SDS011;10193;48.884;9.182;2024-02-15T10:27:38;1.67;;;1.30;;
20065;SDS011;10193;48.884;9.182;2024-02-15T10:30:15;1.48;;;1.30;;
20065;SDS011;10193;48.884;9.182;2024-02-15T10:32:43;1.38;;;1.10;;
20065;SDS011;10193;48.884;9.182;2024-02-15T10:35:09;1.67;;;1.00;;
20065;SDS011;10193;48.884;9.182;2024-02-15T10:37:40;1.20;;;1.10;;
20065;SDS011;10193;48.884;9.182;2024-02-15T10:40:07;1.92;;;1.38;;
20065;SDS011;10193;48.884;9.182;2024-02-15T10:42:36;1.10;;;1.00;;
20065;SDS011;10193;48.884;9.182;2024-02-15T10:45:03;1.23;;;1.10;;
20065;SDS011;10193;48.884;9.182;2024-02-15T10:47:31;1.75;;;0.98;;
20065;SDS011;10193;48.884;9.182;2024-02-15T10:49:57;2.92;;;1.58;;
20065;SDS011;10193;48.884;9.182;2024-02-15T10:52:24;1.63;;;1.10;;
20065;SDS011;10193;48.884;9.182;2024-02-15T10:54:56;2.20;;;1.20;;
20065;SDS011;10193;48.884;9.182;2024-02-15T10:57:31;2.10;;;1.10;;
20065;SDS011;10193;48.884;9.182;2024-02-15T11:00:00;1.20;;;1.08;;
20065;SDS011;10193;48.884;9.182;2024-02-15T11:02:36;1.23;;;0.80;;
20065;SDS011;10193;48.884;9.182;2024-02-15T11:05:06;1.05;;;0.95;;
20065;SDS011;10193;48.884;9.182;2024-02-15T11:07:35;1.30;;;0.90;;
20065;SDS011;10193;48.884;9.182;2024-02-15T11:10:02;1.00;;;0.65;;
20065;SDS011;10193;48.884;9.182;2024-02-15T11:12:34;1.00;;;0.90;;
20065;SDS011;10193;48.884;9.182;2024-02-15T11:15:03;1.67;;;1.02;;
20065;SDS011;10193;48.884;9.182;2024-02-15T11:17:47;1.58;;;1.00;;
20065;SDS011;10193;48.884;9.182;2024-02-15T11:23:25;0.85;;;0.82;;
20065;SDS011;10193;48.884;9.182;2024-02-15T11:25:55;1.50;;;0.90;;
20065;SDS011;10193;48.884;9.182;2024-02-15T11:28:39;1.00;;;0.90;;
20065;SDS011;10193;48.884;9.182;2024-02-15T11:40:17;0.70;;;0.70;;
20065;SDS011;10193;48.884;9.182;2024-02-15T11:42:45;0.70;;;0.70;;
20065;SDS011;10193;48.884;9.182;2024-02-15T11:45:13;1.23;;;1.00;;
20065;SDS011;10193;48.884;9.182;2024-02-15T11:47:43;1.02;;;0.80;;
20065;SDS011;10193;48.884;9.182;2024-02-15T11:50:18;1.55;;;1.13;;
20065;SDS011;10193;48.884;9.182;2024-02-15T11:52:46;1.95;;;0.90;;
20065;SDS011;10193;48.884;9.182;2024-02-15T11:55:14;1.60;;;1.08;;
20065;SDS011;10193;48.884;9.182;2024-02-15T11:57:53;1.55;;;1.00;;
20065;SDS011;10193;48.884;9.182;2024-02-15T12:00:27;3.08;;;0.90;;
20065;SDS011;10193;48.884;9.182;2024-02-15T12:03:13;1.35;;;1.00;;
20065;SDS011;10193;48.884;9.182;2024-02-15T12:05:59;1.58;;;0.77;;
20065;SDS011;10193;48.884;9.182;2024-02-15T12:08:44;1.08;;;0.80;;
20065;SDS011;10193;48.884;9.182;2024-02-15T12:11:29;1.27;;;1.05;;
20065;SDS011;10193;48.884;9.182;2024-02-15T12:14:14;0.65;;;0.60;;
20065;SDS011;10193;48.884;9.182;2024-02-15T12:17:02;1.27;;;0.98;;
20065;SDS011;10193;48.884;9.182;2024-02-15T12:19:47;1.00;;;0.80;;
20065;SDS011;10193;48.884;9.182;2024-02-15T12:22:18;1.10;;;0.88;;
20065;SDS011;10193;48.884;9.182;2024-02-15T12:24:54;1.00;;;0.90;;
20065;SDS011;10193;48.884;9.182;2024-02-15T12:27:21;0.80;;;0.80;;
20065;SDS011;10193;48.884;9.182;2024-02-15T12:29:52;1.08;;;0.82;;
20065;SDS011;10193;48.884;9.182;2024-02-15T12:32:19;1.08;;;0.80;;
20065;SDS011;10193;48.884;9.182;2024-02-15T12:34:47;0.98;;;0.85;;
20065;SDS011;10193;48.884;9.182;2024-02-15T12:37:14;2.00;;;0.70;;
20065;SDS011;10193;48.884;9.182;2024-02-15T12:39:46;1.55;;;0.73;;
20065;SDS011;10193;48.884;9.182;2024-02-15T12:42:14;1.00;;;0.80;;
20065;SDS011;10193;48.884;9.182;2024-02-15T12:44:42;1.98;;;1.00;;
20065;SDS011;10193;48.884;9.182;2024-02-15T12:47:17;1.25;;;1.08;;
20065;SDS011;10193;48.884;9.182;2024-02-15T12:49:44;2.22;;;1.05;;
20065;SDS011;10193;48.884;9.182;2024-02-15T12:55:12;2.22;;;1.20;;
20065;SDS011;10193;48.884;9.182;2024-02-15T12:57:41;1.30;;;1.00;;
20065;SDS011;10193;48.884;9.182;2024-02-15T13:00:12;1.58;;;0.80;;
20065;SDS011;10193;48.884;9.182;2024-02-15T13:02:43;1.00;;;0.70;;
20065;SDS011;10193;48.884;9.182;2024-02-15T13:05:11;1.35;;;0.95;;
20065;SDS011;10193;48.884;9.182;2024-02-15T13:07:40;1.10;;;0.60;;
20065;SDS011;10193;48.884;9.182;2024-02-15T13:10:07;1.73;;;0.80;;
20065;SDS011;10193;48.884;9.182;2024-02-15T13:12:35;1.77;;;1.00;;
20065;SDS011;10193;48.884;9.182;2024-02-15T13:15:03;1.35;;;1.10;;
20065;SDS011;10193;48.884;9.182;2024-02-15T13:17:31;2.58;;;1.00;;
20065;SDS011;10193;48.884;9.182;2024-02-15T13:19:59;2.70;;;1.23;;
20065;SDS011;10193;48.884;9.182;2024-02-15T13:22:30;1.08;;;0.80;;
20065;SDS011;10193;48.884;9.182;2024-02-15T13:24:57;2.38;;;0.90;;
20065;SDS011;10193;48.884;9.182;2024-02-15T13:27:24;1.15;;;0.80;;
20065;SDS011;10193;48.884;9.182;2024-02-15T13:29:51;0.75;;;0.68;;
20065;SDS011;10193;48.884;9.182;2024-02-15T13:32:18;3.83;;;1.00;;
20065;SDS011;10193;48.884;9.182;2024-02-15T13:34:46;1.63;;;0.98;;
20065;SDS011;10193;48.884;9.182;2024-02-15T13:37:16;1.65;;;1.02;;
20065;SDS011;10193;48.884;9.182;2024-02-15T13:39:45;1.13;;;0.88;;
20065;SDS011;10193;48.884;9.182;2024-02-15T13:42:14;1.75;;;1.10;;
20065;SDS011;10193;48.884;9.182;2024-02-15T13:44:42;1.33;;;0.90;;
20065;SDS011;10193;48.884;9.182;2024-02-15T13:47:08;1.33;;;1.00;;
20065;SDS011;10193;48.884;9.182;2024-02-15T13:49:36;1.35;;;0.90;;
20065;SDS011;10193;48.884;9.182;2024-02-15T13:52:03;1.17;;;1.00;;
20065;SDS011;10193;48.884;9.182;2024-02-15T13:54:31;1.48;;;0.93;;
20065;SDS011;10193;48.884;9.182;2024-02-15T13:56:58;1.33;;;0.70;;
20065;SDS011;10193;48.884;9.182;2024-02-15T13:59:27;0.65;;;0.60;;
20065;SDS011;10193;48.884;9.182;2024-02-15T14:01:54;0.95;;;0.90;;
20065;SDS011;10193;48.884;9.182;2024-02-15T14:04:21;0.98;;;0.70;;
20065;SDS011;10193;48.884;9.182;2024-02-15T14:06:48;0.82;;;0.65;;
20065;SDS011;10193;48.884;9.182;2024-02-15T14:09:15;1.35;;;0.90;;
20065;SDS011;10193;48.884;9.182;2024-02-15T14:11:42;0.80;;;0.80;;
20065;SDS011;10193;48.884;9.182;2024-02-15T14:14:09;1.83;;;0.95;;
20065;SDS011;10193;48.884;9.182;2024-02-15T14:16:37;1.20;;;0.85;;
20065;SDS011;10193;48.884;9.182;2024-02-15T14:19:04;1.27;;;0.90;;
20065;SDS011;10193;48.884;9.182;2024-02-15T14:21:31;2.03;;;1.15;;
20065;SDS011;10193;48.884;9.182;2024-02-15T14:24:03;2.55;;;1.90;;
20065;SDS011;10193;48.884;9.182;2024-02-15T14:26:33;3.67;;;2.08;;
20065;SDS011;10193;48.884;9.182;2024-02-15T14:29:00;3.17;;;2.30;;
20065;SDS011;10193;48.884;9.182;2024-02-15T14:31:28;3.47;;;2.33;;
20065;SDS011;10193;48.884;9.182;2024-02-15T14:34:14;2.33;;;1.80;;
20065;SDS011;10193;48.884;9.182;2024-02-15T14:36:42;2.35;;;2.05;;
20065;SDS011;10193;48.884;9.182;2024-02-15T14:39:10;2.13;;;1.92;;
20065;SDS011;10193;48.884;9.182;2024-02-15T14:41:38;1.65;;;1.20;;
20065;SDS011;10193;48.884;9.182;2024-02-15T14:44:05;2.20;;;1.48;;
20065;SDS011;10193;48.884;9.182;2024-02-15T14:46:32;2.45;;;2.25;;
20065;SDS011;10193;48.884;9.182;2024-02-15T14:49:00;1.63;;;1.45;;
20065;SDS011;10193;48.884;9.182;2024-02-15T14:51:28;3.60;;;1.70;;
20065;SDS011;10193;48.884;9.182;2024-02-15T14:53:56;1.50;;;1.40;;
20065;SDS011;10193;48.884;9.182;2024-02-15T14:56:23;1.35;;;1.17;;
20065;SDS011;10193;48.884;9.182;2024-02-15T14:58:50;1.63;;;1.30;;
20065;SDS011;10193;48.884;9.182;2024-02-15T15:01:17;1.38;;;1.23;;
20065;SDS011;10193;48.884;9.182;2024-02-15T15:03:52;1.50;;;1.00;;
20065;SDS011;10193;48.884;9.182;2024-02-15T15:06:20;1.23;;;1.10;;
20065;SDS011;10193;48.884;9.182;2024-02-15T15:09:05;1.00;;;0.90;;
20065;SDS011;10193;48.884;9.182;2024-02-15T15:11:49;0.95;;;0.80;;